createdAt,value
2018-02-27T00:00:49.407Z,-10.1
2018-02-27T00:01:48.272Z,-10.1
2018-02-27T00:02:47.126Z,-10.1
2018-02-27T00:03:45.846Z,-10.1
2018-02-27T00:04:44.569Z,-10.1
2018-02-27T00:05:43.563Z,-10.1
2018-02-27T00:06:42.389Z,-10.2
2018-02-27T00:07:41.115Z,-10.2
2018-02-27T00:08:39.939Z,-10.1
2018-02-27T00:09:38.982Z,-10.2
2018-02-27T00:10:37.706Z,-10.2
2018-02-27T00:11:36.531Z,-10.2
2018-02-27T00:12:35.146Z,-10.2
2018-02-27T00:13:34.188Z,-10.2
2018-02-27T00:15:31.899Z,-10.2
2018-02-27T00:16:30.633Z,-10.1
2018-02-27T00:17:29.347Z,-10.1
2018-02-27T00:19:27.059Z,-10.1
2018-02-27T00:21:24.659Z,-10.1
2018-02-27T00:22:23.595Z,-10.1
2018-02-27T00:23:22.527Z,-10.1
2018-02-27T00:24:21.261Z,-10.2
2018-02-27T00:25:20.091Z,-10.1
2018-02-27T00:26:19.034Z,-10.2
2018-02-27T00:27:18.191Z,-10.2
2018-02-27T00:28:16.520Z,-10.2
2018-02-27T00:29:15.358Z,-10.2
2018-02-27T00:30:14.080Z,-10.2
2018-02-27T00:31:12.804Z,-10.2
2018-02-27T00:32:11.526Z,-10.2
2018-02-27T00:33:10.750Z,-10.2
2018-02-27T00:34:09.691Z,-10.2
2018-02-27T00:35:08.240Z,-10.1
2018-02-27T00:37:05.966Z,-10.2
2018-02-27T00:38:04.906Z,-10.2
2018-02-27T00:40:02.122Z,-10.2
2018-02-27T00:41:59.938Z,-10.2
2018-02-27T00:42:58.660Z,-10.2
2018-02-27T00:43:57.495Z,-10.3
2018-02-27T00:44:56.529Z,-10.2
2018-02-27T00:45:55.473Z,-10.2
2018-02-27T00:47:52.678Z,-10.3
2018-02-27T00:48:51.792Z,-10.3
2018-02-27T00:49:50.786Z,-10.3
2018-02-27T00:50:49.513Z,-10.3
2018-02-27T00:51:48.343Z,-10.3
2018-02-27T00:52:47.285Z,-10.3
2018-02-27T00:53:45.924Z,-10.3
2018-02-27T00:54:44.975Z,-10.3
2018-02-27T00:56:42.509Z,-10.3
2018-02-27T00:57:41.552Z,-10.4
2018-02-27T00:58:39.986Z,-10.4
2018-02-27T00:59:38.711Z,-10.4
2018-02-27T01:00:37.441Z,-10.4
2018-02-27T01:02:35.155Z,-10.4
2018-02-27T01:03:34.209Z,-10.5
2018-02-27T01:04:33.144Z,-10.5
2018-02-27T01:05:31.582Z,-10.5
2018-02-27T01:06:30.523Z,-10.5
2018-02-27T01:07:29.347Z,-10.5
2018-02-27T01:08:28.286Z,-10.5
2018-02-27T01:09:26.900Z,-10.5
2018-02-27T01:11:24.612Z,-10.5
2018-02-27T01:12:23.556Z,-10.5
2018-02-27T01:13:22.514Z,-10.5
2018-02-27T01:14:20.946Z,-10.5
2018-02-27T01:16:18.551Z,-10.5
2018-02-27T01:16:49.305Z,-10.5
2018-02-27T01:17:19.666Z,-10.5
2018-02-27T01:17:49.812Z,-10.5
2018-02-27T01:19:15.423Z,-10.5
2018-02-27T01:20:14.366Z,-10.5
2018-02-27T01:22:11.678Z,-10.6
2018-02-27T01:23:10.768Z,-10.6
2018-02-27T01:24:09.203Z,-10.6
2018-02-27T01:25:08.257Z,-10.6
2018-02-27T01:26:07.089Z,-10.7
2018-02-27T01:28:04.808Z,-10.6
2018-02-27T01:29:03.238Z,-10.7
2018-02-27T01:30:02.074Z,-10.7
2018-02-27T01:31:00.909Z,-10.7
2018-02-27T01:31:59.524Z,-10.7
2018-02-27T01:32:58.959Z,-10.7
2018-02-27T01:33:57.901Z,-10.7
2018-02-27T01:34:56.228Z,-10.7
2018-02-27T01:35:55.186Z,-10.7
2018-02-27T01:36:54.127Z,-10.7
2018-02-27T01:37:53.172Z,-10.7
2018-02-27T01:38:51.495Z,-10.7
2018-02-27T01:39:50.434Z,-10.7
2018-02-27T01:40:49.374Z,-10.7
2018-02-27T01:41:48.307Z,-10.7
2018-02-27T01:42:46.522Z,-10.8
2018-02-27T01:43:45.858Z,-10.8
2018-02-27T01:44:44.912Z,-10.8
2018-02-27T01:45:43.244Z,-10.8
2018-02-27T01:46:41.967Z,-10.8
2018-02-27T01:47:40.808Z,-10.8
2018-02-27T01:48:39.418Z,-10.8
2018-02-27T01:49:38.965Z,-10.8
2018-02-27T01:50:37.292Z,-10.8
2018-02-27T01:51:36.353Z,-10.9
2018-02-27T01:52:35.070Z,-10.9
2018-02-27T01:53:34.008Z,-10.9
2018-02-27T01:54:32.950Z,-10.8
2018-02-27T01:55:02.985Z,-10.8
2018-02-27T01:55:33.638Z,-10.8
2018-02-27T01:56:04.302Z,-10.8
2018-02-27T01:56:34.839Z,-10.9
2018-02-27T01:57:05.593Z,-10.9
2018-02-27T01:58:28.071Z,-10.9
2018-02-27T01:59:26.578Z,-10.9
2018-02-27T02:01:24.288Z,-10.9
2018-02-27T02:02:23.128Z,-10.9
2018-02-27T02:03:22.064Z,-10.9
2018-02-27T02:04:20.995Z,-10.9
2018-02-27T02:04:50.931Z,-10.9
2018-02-27T02:06:18.458Z,-10.9
2018-02-27T02:07:17.284Z,-10.9
2018-02-27T02:08:16.013Z,-10.9
2018-02-27T02:09:15.059Z,-10.9
2018-02-27T02:10:13.679Z,-10.9
2018-02-27T02:11:12.298Z,-11
2018-02-27T02:12:11.740Z,-11
2018-02-27T02:13:10.281Z,-11
2018-02-27T02:14:09.441Z,-11
2018-02-27T02:16:06.860Z,-11
2018-02-27T02:17:05.820Z,-11
2018-02-27T02:18:04.472Z,-11
2018-02-27T02:19:02.911Z,-11.1
2018-02-27T02:20:01.540Z,-11.1
2018-02-27T02:21:00.983Z,-11.1
2018-02-27T02:21:58.985Z,-11.1
2018-02-27T02:22:58.213Z,-11.1
2018-02-27T02:23:57.148Z,-11.1
2018-02-27T02:24:55.867Z,-11.1
2018-02-27T02:25:54.813Z,-11.1
2018-02-27T02:26:53.749Z,-11.1
2018-02-27T02:28:50.853Z,-11.1
2018-02-27T02:29:49.686Z,-11.1
2018-02-27T02:30:48.516Z,-11.1
2018-02-27T02:31:47.466Z,-11.1
2018-02-27T02:32:46.515Z,-11.2
2018-02-27T02:34:44.345Z,-11.2
2018-02-27T02:35:14.392Z,-11.2
2018-02-27T02:35:45.269Z,-11.2
2018-02-27T02:36:15.540Z,-11.2
2018-02-27T02:37:40.876Z,-11.2
2018-02-27T02:39:38.199Z,-11.2
2018-02-27T02:41:35.525Z,-11.2
2018-02-27T02:42:34.583Z,-11.2
2018-02-27T02:43:33.412Z,-11.2
2018-02-27T02:44:32.353Z,-11.2
2018-02-27T02:45:30.898Z,-11.3
2018-02-27T02:46:01.155Z,-11.3
2018-02-27T02:46:31.297Z,-11.3
2018-02-27T02:47:01.851Z,-11.3
2018-02-27T02:48:27.251Z,-11.3
2018-02-27T02:49:26.085Z,-11.3
2018-02-27T02:50:24.832Z,-11.3
2018-02-27T02:51:23.885Z,-11.3
2018-02-27T02:52:22.830Z,-11.3
2018-02-27T02:53:21.552Z,-11.3
2018-02-27T02:54:20.709Z,-11.3
2018-02-27T02:55:19.356Z,-11.3
2018-02-27T02:56:17.583Z,-11.3
2018-02-27T02:57:16.526Z,-11.3
2018-02-27T02:58:15.569Z,-11.4
2018-02-27T03:00:13.488Z,-11.4
2018-02-27T03:01:12.197Z,-11.4
2018-02-27T03:02:10.532Z,-11.4
2018-02-27T03:03:09.465Z,-11.4
2018-02-27T03:04:08.506Z,-11.4
2018-02-27T03:05:06.942Z,-11.4
2018-02-27T03:07:04.874Z,-11.3
2018-02-27T03:08:03.701Z,-11.4
2018-02-27T03:09:02.859Z,-11.4
2018-02-27T03:10:00.968Z,-11.4
2018-02-27T03:11:58.464Z,-11.4
2018-02-27T03:12:57.800Z,-11.4
2018-02-27T03:13:56.628Z,-11.4
2018-02-27T03:14:55.171Z,-11.4
2018-02-27T03:15:53.891Z,-11.4
2018-02-27T03:16:52.957Z,-11.4
2018-02-27T03:17:51.682Z,-11.4
2018-02-27T03:18:50.730Z,-11.4
2018-02-27T03:19:48.948Z,-11.4
2018-02-27T03:21:46.658Z,-11.4
2018-02-27T03:22:45.956Z,-11.4
2018-02-27T03:23:44.175Z,-11.4
2018-02-27T03:26:40.872Z,-11.4
2018-02-27T03:27:39.701Z,-11.4
2018-02-27T03:28:38.528Z,-11.4
2018-02-27T03:29:37.675Z,-11.5
2018-02-27T03:30:36.023Z,-11.5
2018-02-27T03:31:35.216Z,-11.5
2018-02-27T03:33:32.525Z,-11.5
2018-02-27T03:34:31.569Z,-11.5
2018-02-27T03:37:27.758Z,-11.4
2018-02-27T03:38:26.692Z,-11.4
2018-02-27T03:39:25.496Z,-11.5
2018-02-27T03:40:24.439Z,-11.4
2018-02-27T03:43:20.641Z,-11.4
2018-02-27T03:44:19.168Z,-11.4
2018-02-27T03:45:17.982Z,-11.4
2018-02-27T03:47:15.462Z,-11.4
2018-02-27T03:48:14.565Z,-11.4
2018-02-27T03:49:12.950Z,-11.4
2018-02-27T03:49:43.379Z,-11.4
2018-02-27T03:50:14.127Z,-11.4
2018-02-27T03:51:10.831Z,-11.4
2018-02-27T03:52:09.826Z,-11.4
2018-02-27T03:53:08.534Z,-11.4
2018-02-27T03:54:07.347Z,-11.5
2018-02-27T03:55:06.269Z,-11.5
2018-02-27T03:56:04.975Z,-11.5
2018-02-27T03:57:03.465Z,-11.5
2018-02-27T03:58:02.828Z,-11.5
2018-02-27T03:59:01.668Z,-11.5
2018-02-27T04:00:00.395Z,-11.5
2018-02-27T04:00:59.128Z,-11.5
2018-02-27T04:01:57.966Z,-11.5
2018-02-27T04:02:56.567Z,-11.5
2018-02-27T04:03:55.067Z,-11.5
2018-02-27T04:04:54.279Z,-11.5
2018-02-27T04:05:52.998Z,-11.6
2018-02-27T04:06:51.504Z,-11.6
2018-02-27T04:07:50.604Z,-11.6
2018-02-27T04:08:49.418Z,-11.6
2018-02-27T04:09:48.231Z,-11.6
2018-02-27T21:14:55.578Z,-8.1
